sensor_id;sensor_type;location;lat;lon;timestamp;temperature;humidity
73586;DHT22;61865;50.232;18.614;2023-02-03T00:01:26;0.60;99.90
73586;DHT22;61865;50.232;18.614;2023-02-03T00:03:50;0.60;99.90
73586;DHT22;61865;50.232;18.614;2023-02-03T00:06:11;0.70;99.90
73586;DHT22;61865;50.232;18.614;2023-02-03T00:08:34;0.80;99.90
73586;DHT22;61865;50.232;18.614;2023-02-03T00:10:58;0.80;99.90
73586;DHT22;61865;50.232;18.614;2023-02-03T00:13:20;0.80;99.90
73586;DHT22;61865;50.232;18.614;2023-02-03T00:15:42;0.90;99.90
73586;DHT22;61865;50.232;18.614;2023-02-03T00:18:04;0.80;99.90
73586;DHT22;61865;50.232;18.614;2023-02-03T00:20:27;0.70;99.90
73586;DHT22;61865;50.232;18.614;2023-02-03T00:22:49;0.60;99.90
73586;DHT22;61865;50.232;18.614;2023-02-03T00:25:11;0.60;99.90
73586;DHT22;61865;50.232;18.614;2023-02-03T00:27:33;0.70;99.90
73586;DHT22;61865;50.232;18.614;2023-02-03T00:29:55;0.70;99.90
73586;DHT22;61865;50.232;18.614;2023-02-03T00:32:16;0.70;99.90
73586;DHT22;61865;50.232;18.614;2023-02-03T00:34:38;0.70;99.90
73586;DHT22;61865;50.232;18.614;2023-02-03T00:37:02;0.70;99.90
73586;DHT22;61865;50.232;18.614;2023-02-03T00:39:23;0.60;99.90
73586;DHT22;61865;50.232;18.614;2023-02-03T00:41:45;0.70;99.90
73586;DHT22;61865;50.232;18.614;2023-02-03T00:44:07;0.70;99.90
73586;DHT22;61865;50.232;18.614;2023-02-03T00:46:29;0.70;99.90
73586;DHT22;61865;50.232;18.614;2023-02-03T00:48:51;0.80;99.90
73586;DHT22;61865;50.232;18.614;2023-02-03T00:51:13;0.80;99.90
73586;DHT22;61865;50.232;18.614;2023-02-03T00:53:36;0.70;99.90
73586;DHT22;61865;50.232;18.614;2023-02-03T00:55:58;0.70;99.90
73586;DHT22;61865;50.232;18.614;2023-02-03T00:58:20;0.60;99.90
73586;DHT22;61865;50.232;18.614;2023-02-03T01:00:42;0.50;99.90
73586;DHT22;61865;50.232;18.614;2023-02-03T01:03:04;0.50;99.90
73586;DHT22;61865;50.232;18.614;2023-02-03T01:05:26;0.50;99.90
73586;DHT22;61865;50.232;18.614;2023-02-03T01:07:48;0.50;99.90
73586;DHT22;61865;50.232;18.614;2023-02-03T01:10:11;0.40;99.90
73586;DHT22;61865;50.232;18.614;2023-02-03T01:12:34;0.40;99.90
73586;DHT22;61865;50.232;18.614;2023-02-03T01:14:56;0.20;99.90
73586;DHT22;61865;50.232;18.614;2023-02-03T01:17:18;0.20;99.90
73586;DHT22;61865;50.232;18.614;2023-02-03T01:19:40;0.10;99.90
73586;DHT22;61865;50.232;18.614;2023-02-03T01:22:02;0.00;99.90
73586;DHT22;61865;50.232;18.614;2023-02-03T01:24:24;0.00;99.90
73586;DHT22;61865;50.232;18.614;2023-02-03T01:26:47;0.00;99.90
73586;DHT22;61865;50.232;18.614;2023-02-03T01:29:09;-0.20;99.90
73586;DHT22;61865;50.232;18.614;2023-02-03T01:31:33;-0.20;99.90
73586;DHT22;61865;50.232;18.614;2023-02-03T01:33:56;-0.40;99.90
73586;DHT22;61865;50.232;18.614;2023-02-03T01:36:19;-0.40;99.90
73586;DHT22;61865;50.232;18.614;2023-02-03T01:38:42;-0.40;99.90
73586;DHT22;61865;50.232;18.614;2023-02-03T01:41:08;-0.50;99.90
73586;DHT22;61865;50.232;18.614;2023-02-03T01:43:33;-0.60;99.90
73586;DHT22;61865;50.232;18.614;2023-02-03T01:45:56;-0.60;99.90
73586;DHT22;61865;50.232;18.614;2023-02-03T01:48:18;-0.60;99.90
73586;DHT22;61865;50.232;18.614;2023-02-03T01:50:40;-0.60;99.90
73586;DHT22;61865;50.232;18.614;2023-02-03T01:53:05;-0.70;99.90
73586;DHT22;61865;50.232;18.614;2023-02-03T01:55:32;-0.70;99.90
73586;DHT22;61865;50.232;18.614;2023-02-03T01:57:56;-0.70;99.90
73586;DHT22;61865;50.232;18.614;2023-02-03T02:00:21;-0.70;99.90
73586;DHT22;61865;50.232;18.614;2023-02-03T02:02:44;-0.70;99.90
73586;DHT22;61865;50.232;18.614;2023-02-03T02:05:12;-0.70;99.90
73586;DHT22;61865;50.232;18.614;2023-02-03T02:07:36;-0.70;99.90
73586;DHT22;61865;50.232;18.614;2023-02-03T02:10:00;-0.70;99.90
73586;DHT22;61865;50.232;18.614;2023-02-03T02:12:22;-0.60;99.90
73586;DHT22;61865;50.232;18.614;2023-02-03T02:14:45;-0.50;99.90
73586;DHT22;61865;50.232;18.614;2023-02-03T02:17:15;-0.50;99.90
73586;DHT22;61865;50.232;18.614;2023-02-03T02:22:31;-0.40;99.90
73586;DHT22;61865;50.232;18.614;2023-02-03T02:25:26;-0.40;99.90
73586;DHT22;61865;50.232;18.614;2023-02-03T02:28:15;-0.30;99.90
73586;DHT22;61865;50.232;18.614;2023-02-03T02:30:58;-0.20;99.90
73586;DHT22;61865;50.232;18.614;2023-02-03T02:33:33;-0.20;99.90
73586;DHT22;61865;50.232;18.614;2023-02-03T02:36:03;-0.20;99.90
73586;DHT22;61865;50.232;18.614;2023-02-03T02:38:39;-0.20;99.90
73586;DHT22;61865;50.232;18.614;2023-02-03T02:41:11;-0.20;99.90
73586;DHT22;61865;50.232;18.614;2023-02-03T02:43:40;-0.30;99.90
73586;DHT22;61865;50.232;18.614;2023-02-03T02:46:09;-0.30;99.90
73586;DHT22;61865;50.232;18.614;2023-02-03T02:48:36;-0.40;99.90
73586;DHT22;61865;50.232;18.614;2023-02-03T02:51:02;-0.40;99.90
73586;DHT22;61865;50.232;18.614;2023-02-03T02:53:28;-0.40;99.90
73586;DHT22;61865;50.232;18.614;2023-02-03T02:55:54;-0.40;99.90
73586;DHT22;61865;50.232;18.614;2023-02-03T02:58:18;-0.40;99.90
73586;DHT22;61865;50.232;18.614;2023-02-03T03:00:42;-0.40;99.90
73586;DHT22;61865;50.232;18.614;2023-02-03T03:03:16;-0.40;99.90
73586;DHT22;61865;50.232;18.614;2023-02-03T03:05:41;-0.40;99.90
73586;DHT22;61865;50.232;18.614;2023-02-03T03:08:04;-0.40;99.90
73586;DHT22;61865;50.232;18.614;2023-02-03T03:10:30;-0.40;99.90
73586;DHT22;61865;50.232;18.614;2023-02-03T03:12:55;-0.40;99.90
73586;DHT22;61865;50.232;18.614;2023-02-03T03:15:20;-0.40;99.90
73586;DHT22;61865;50.232;18.614;2023-02-03T03:17:47;-0.40;99.90
73586;DHT22;61865;50.232;18.614;2023-02-03T03:20:16;-0.30;99.90
73586;DHT22;61865;50.232;18.614;2023-02-03T03:22:44;-0.30;99.90
73586;DHT22;61865;50.232;18.614;2023-02-03T03:25:13;-0.20;99.90
73586;DHT22;61865;50.232;18.614;2023-02-03T03:27:40;-0.20;99.90
73586;DHT22;61865;50.232;18.614;2023-02-03T03:30:06;-0.20;99.90
73586;DHT22;61865;50.232;18.614;2023-02-03T03:32:30;-0.20;99.90
73586;DHT22;61865;50.232;18.614;2023-02-03T03:34:53;-0.30;99.90
73586;DHT22;61865;50.232;18.614;2023-02-03T03:37:19;-0.30;99.90
73586;DHT22;61865;50.232;18.614;2023-02-03T03:39:47;-0.40;99.90
73586;DHT22;61865;50.232;18.614;2023-02-03T03:42:18;-0.40;99.90
73586;DHT22;61865;50.232;18.614;2023-02-03T03:44:47;-0.40;99.90
73586;DHT22;61865;50.232;18.614;2023-02-03T03:47:15;-0.40;99.90
73586;DHT22;61865;50.232;18.614;2023-02-03T03:49:41;-0.40;99.90
73586;DHT22;61865;50.232;18.614;2023-02-03T03:52:07;-0.40;99.90
73586;DHT22;61865;50.232;18.614;2023-02-03T03:54:31;-0.40;99.90
73586;DHT22;61865;50.232;18.614;2023-02-03T03:56:57;-0.40;99.90
73586;DHT22;61865;50.232;18.614;2023-02-03T03:59:21;-0.40;99.90
73586;DHT22;61865;50.232;18.614;2023-02-03T04:01:45;-0.40;99.90
73586;DHT22;61865;50.232;18.614;2023-02-03T04:04:09;-0.40;99.90
73586;DHT22;61865;50.232;18.614;2023-02-03T04:06:31;-0.40;99.90
73586;DHT22;61865;50.232;18.614;2023-02-03T04:08:53;-0.40;99.90
73586;DHT22;61865;50.232;18.614;2023-02-03T04:11:15;-0.30;99.90
73586;DHT22;61865;50.232;18.614;2023-02-03T04:13:58;-0.30;99.90
73586;DHT22;61865;50.232;18.614;2023-02-03T04:16:20;-0.30;99.90
73586;DHT22;61865;50.232;18.614;2023-02-03T04:18:42;-0.40;99.90
73586;DHT22;61865;50.232;18.614;2023-02-03T04:21:04;-0.40;99.90
73586;DHT22;61865;50.232;18.614;2023-02-03T04:23:26;-0.30;99.90
73586;DHT22;61865;50.232;18.614;2023-02-03T04:25:48;-0.30;99.90
73586;DHT22;61865;50.232;18.614;2023-02-03T04:28:10;-0.30;99.90
73586;DHT22;61865;50.232;18.614;2023-02-03T04:30:33;-0.30;99.90
73586;DHT22;61865;50.232;18.614;2023-02-03T04:32:55;-0.30;99.90
73586;DHT22;61865;50.232;18.614;2023-02-03T04:35:17;-0.30;99.90
73586;DHT22;61865;50.232;18.614;2023-02-03T04:37:40;-0.30;99.90
73586;DHT22;61865;50.232;18.614;2023-02-03T04:40:02;-0.30;99.90
73586;DHT22;61865;50.232;18.614;2023-02-03T04:42:25;-0.30;99.90
73586;DHT22;61865;50.232;18.614;2023-02-03T04:44:47;-0.20;99.90
73586;DHT22;61865;50.232;18.614;2023-02-03T04:47:10;-0.30;99.90
73586;DHT22;61865;50.232;18.614;2023-02-03T04:49:32;-0.30;99.90
73586;DHT22;61865;50.232;18.614;2023-02-03T04:51:54;-0.30;99.90
73586;DHT22;61865;50.232;18.614;2023-02-03T04:54:16;-0.30;99.90
73586;DHT22;61865;50.232;18.614;2023-02-03T04:56:38;-0.30;99.90
73586;DHT22;61865;50.232;18.614;2023-02-03T04:59:00;-0.30;99.90
73586;DHT22;61865;50.232;18.614;2023-02-03T05:01:22;-0.30;99.90
73586;DHT22;61865;50.232;18.614;2023-02-03T05:03:45;-0.30;99.90
73586;DHT22;61865;50.232;18.614;2023-02-03T05:06:07;-0.30;99.90
73586;DHT22;61865;50.232;18.614;2023-02-03T05:08:29;-0.30;99.90
73586;DHT22;61865;50.232;18.614;2023-02-03T05:10:51;-0.20;99.90
73586;DHT22;61865;50.232;18.614;2023-02-03T05:13:13;-0.20;99.90
73586;DHT22;61865;50.232;18.614;2023-02-03T05:15:34;-0.20;99.90
73586;DHT22;61865;50.232;18.614;2023-02-03T05:17:56;-0.20;99.90
73586;DHT22;61865;50.232;18.614;2023-02-03T05:20:20;-0.20;99.90
73586;DHT22;61865;50.232;18.614;2023-02-03T05:22:42;-0.20;99.90
73586;DHT22;61865;50.232;18.614;2023-02-03T05:25:04;-0.20;99.90
73586;DHT22;61865;50.232;18.614;2023-02-03T05:27:26;-0.20;99.90
73586;DHT22;61865;50.232;18.614;2023-02-03T05:29:48;-0.20;99.90
73586;DHT22;61865;50.232;18.614;2023-02-03T05:32:10;-0.20;99.90
73586;DHT22;61865;50.232;18.614;2023-02-03T05:34:32;-0.20;99.90
73586;DHT22;61865;50.232;18.614;2023-02-03T05:36:55;-0.10;99.90
73586;DHT22;61865;50.232;18.614;2023-02-03T05:39:17;-0.10;99.90
73586;DHT22;61865;50.232;18.614;2023-02-03T05:41:39;-0.10;99.90
73586;DHT22;61865;50.232;18.614;2023-02-03T05:44:11;-0.10;99.90
73586;DHT22;61865;50.232;18.614;2023-02-03T05:46:33;0.00;99.90
73586;DHT22;61865;50.232;18.614;2023-02-03T05:48:55;0.00;99.90
73586;DHT22;61865;50.232;18.614;2023-02-03T05:51:17;0.00;99.90
73586;DHT22;61865;50.232;18.614;2023-02-03T05:53:40;0.00;99.90
73586;DHT22;61865;50.232;18.614;2023-02-03T05:56:02;0.00;99.90
73586;DHT22;61865;50.232;18.614;2023-02-03T05:58:24;0.00;99.90
73586;DHT22;61865;50.232;18.614;2023-02-03T06:00:46;0.00;99.90
73586;DHT22;61865;50.232;18.614;2023-02-03T06:03:08;0.00;99.90
73586;DHT22;61865;50.232;18.614;2023-02-03T06:05:32;0.00;99.90
73586;DHT22;61865;50.232;18.614;2023-02-03T06:07:54;0.00;99.90
73586;DHT22;61865;50.232;18.614;2023-02-03T06:10:18;-0.10;99.90
73586;DHT22;61865;50.232;18.614;2023-02-03T06:12:40;-0.10;99.90
73586;DHT22;61865;50.232;18.614;2023-02-03T06:15:02;-0.10;99.90
73586;DHT22;61865;50.232;18.614;2023-02-03T06:17:24;-0.10;99.90
73586;DHT22;61865;50.232;18.614;2023-02-03T06:19:46;0.00;99.90
73586;DHT22;61865;50.232;18.614;2023-02-03T06:22:08;0.00;99.90
73586;DHT22;61865;50.232;18.614;2023-02-03T06:24:29;0.00;99.90
73586;DHT22;61865;50.232;18.614;2023-02-03T06:26:53;0.00;99.90
73586;DHT22;61865;50.232;18.614;2023-02-03T06:29:15;0.00;99.90
73586;DHT22;61865;50.232;18.614;2023-02-03T06:31:37;0.00;99.90
73586;DHT22;61865;50.232;18.614;2023-02-03T06:33:58;0.10;99.90
73586;DHT22;61865;50.232;18.614;2023-02-03T06:36:22;0.10;99.90
73586;DHT22;61865;50.232;18.614;2023-02-03T06:38:44;0.10;99.90
73586;DHT22;61865;50.232;18.614;2023-02-03T06:41:06;0.10;99.90
73586;DHT22;61865;50.232;18.614;2023-02-03T06:43:29;0.10;99.90
73586;DHT22;61865;50.232;18.614;2023-02-03T06:45:51;0.10;99.90
73586;DHT22;61865;50.232;18.614;2023-02-03T06:48:13;0.20;99.90
73586;DHT22;61865;50.232;18.614;2023-02-03T06:50:36;0.20;99.90
73586;DHT22;61865;50.232;18.614;2023-02-03T06:52:57;0.20;99.90
73586;DHT22;61865;50.232;18.614;2023-02-03T06:55:19;0.20;99.90
73586;DHT22;61865;50.232;18.614;2023-02-03T06:57:45;0.30;99.90
73586;DHT22;61865;50.232;18.614;2023-02-03T07:00:10;0.30;99.90
73586;DHT22;61865;50.232;18.614;2023-02-03T07:02:33;0.30;99.90
73586;DHT22;61865;50.232;18.614;2023-02-03T07:04:55;0.30;99.90
73586;DHT22;61865;50.232;18.614;2023-02-03T07:07:17;0.40;99.90
73586;DHT22;61865;50.232;18.614;2023-02-03T07:09:39;0.40;99.90
73586;DHT22;61865;50.232;18.614;2023-02-03T07:12:01;0.40;99.90
73586;DHT22;61865;50.232;18.614;2023-02-03T07:14:23;0.50;99.90
73586;DHT22;61865;50.232;18.614;2023-02-03T07:16:46;0.50;99.90
73586;DHT22;61865;50.232;18.614;2023-02-03T07:19:08;0.60;99.90
73586;DHT22;61865;50.232;18.614;2023-02-03T07:21:30;0.70;99.90
73586;DHT22;61865;50.232;18.614;2023-02-03T07:23:52;0.70;99.90
73586;DHT22;61865;50.232;18.614;2023-02-03T07:26:14;0.80;99.90
73586;DHT22;61865;50.232;18.614;2023-02-03T07:28:36;0.80;99.90
73586;DHT22;61865;50.232;18.614;2023-02-03T07:30:58;0.80;99.90
73586;DHT22;61865;50.232;18.614;2023-02-03T07:33:21;0.80;99.90
73586;DHT22;61865;50.232;18.614;2023-02-03T07:35:43;0.90;99.90
73586;DHT22;61865;50.232;18.614;2023-02-03T07:38:14;0.90;99.90
73586;DHT22;61865;50.232;18.614;2023-02-03T07:40:38;0.90;99.90
73586;DHT22;61865;50.232;18.614;2023-02-03T07:43:03;0.90;99.90
73586;DHT22;61865;50.232;18.614;2023-02-03T07:45:27;1.00;99.90
73586;DHT22;61865;50.232;18.614;2023-02-03T07:47:49;1.10;99.90
73586;DHT22;61865;50.232;18.614;2023-02-03T07:50:15;1.10;99.90
73586;DHT22;61865;50.232;18.614;2023-02-03T07:52:37;1.10;99.90
73586;DHT22;61865;50.232;18.614;2023-02-03T07:55:03;1.20;99.90
73586;DHT22;61865;50.232;18.614;2023-02-03T07:57:26;1.20;99.90
73586;DHT22;61865;50.232;18.614;2023-02-03T07:59:47;1.20;99.90
73586;DHT22;61865;50.232;18.614;2023-02-03T08:02:09;1.20;99.90
73586;DHT22;61865;50.232;18.614;2023-02-03T08:04:31;1.20;99.90
73586;DHT22;61865;50.232;18.614;2023-02-03T08:06:56;1.20;99.90
73586;DHT22;61865;50.232;18.614;2023-02-03T08:09:18;1.20;99.90
73586;DHT22;61865;50.232;18.614;2023-02-03T08:11:40;1.30;99.90
73586;DHT22;61865;50.232;18.614;2023-02-03T08:14:02;1.30;99.90
73586;DHT22;61865;50.232;18.614;2023-02-03T08:16:23;1.30;99.90
73586;DHT22;61865;50.232;18.614;2023-02-03T08:18:45;1.30;99.90
73586;DHT22;61865;50.232;18.614;2023-02-03T08:21:07;1.30;99.90
73586;DHT22;61865;50.232;18.614;2023-02-03T08:23:31;1.20;99.90
73586;DHT22;61865;50.232;18.614;2023-02-03T08:25:52;1.30;99.90
73586;DHT22;61865;50.232;18.614;2023-02-03T08:28:14;1.20;99.90
73586;DHT22;61865;50.232;18.614;2023-02-03T08:30:37;1.20;99.90
73586;DHT22;61865;50.232;18.614;2023-02-03T08:32:58;1.20;99.90
73586;DHT22;61865;50.232;18.614;2023-02-03T08:35:20;1.20;99.90
73586;DHT22;61865;50.232;18.614;2023-02-03T08:37:43;1.20;99.90
73586;DHT22;61865;50.232;18.614;2023-02-03T08:40:07;1.20;99.90
73586;DHT22;61865;50.232;18.614;2023-02-03T08:42:30;1.30;99.90
73586;DHT22;61865;50.232;18.614;2023-02-03T08:44:52;1.20;99.90
73586;DHT22;61865;50.232;18.614;2023-02-03T08:47:14;1.20;99.90
73586;DHT22;61865;50.232;18.614;2023-02-03T08:49:36;1.30;99.90
73586;DHT22;61865;50.232;18.614;2023-02-03T08:51:59;1.30;99.90
73586;DHT22;61865;50.232;18.614;2023-02-03T08:54:21;1.40;99.90
73586;DHT22;61865;50.232;18.614;2023-02-03T08:56:45;1.40;99.90
73586;DHT22;61865;50.232;18.614;2023-02-03T08:59:07;1.40;99.90
73586;DHT22;61865;50.232;18.614;2023-02-03T09:01:29;1.50;99.90
73586;DHT22;61865;50.232;18.614;2023-02-03T09:03:51;1.50;99.90
73586;DHT22;61865;50.232;18.614;2023-02-03T09:06:13;1.60;99.90
73586;DHT22;61865;50.232;18.614;2023-02-03T09:08:36;1.50;99.90
73586;DHT22;61865;50.232;18.614;2023-02-03T09:10:58;1.50;99.90
73586;DHT22;61865;50.232;18.614;2023-02-03T09:13:21;1.60;99.90
73586;DHT22;61865;50.232;18.614;2023-02-03T09:15:43;1.50;99.90
73586;DHT22;61865;50.232;18.614;2023-02-03T09:18:05;1.50;99.90
73586;DHT22;61865;50.232;18.614;2023-02-03T09:20:27;1.50;99.90
73586;DHT22;61865;50.232;18.614;2023-02-03T09:22:49;1.50;99.90
73586;DHT22;61865;50.232;18.614;2023-02-03T09:25:11;1.50;99.90
73586;DHT22;61865;50.232;18.614;2023-02-03T09:27:33;1.50;99.90
73586;DHT22;61865;50.232;18.614;2023-02-03T09:29:56;1.50;99.90
73586;DHT22;61865;50.232;18.614;2023-02-03T09:32:18;1.50;99.90
73586;DHT22;61865;50.232;18.614;2023-02-03T09:34:40;1.40;99.90
73586;DHT22;61865;50.232;18.614;2023-02-03T09:37:02;1.40;99.90
73586;DHT22;61865;50.232;18.614;2023-02-03T09:39:24;1.50;99.90
73586;DHT22;61865;50.232;18.614;2023-02-03T09:42:18;1.50;99.90
73586;DHT22;61865;50.232;18.614;2023-02-03T09:44:49;1.50;99.90
73586;DHT22;61865;50.232;18.614;2023-02-03T09:47:16;1.50;99.90
73586;DHT22;61865;50.232;18.614;2023-02-03T09:49:42;1.50;99.90
73586;DHT22;61865;50.232;18.614;2023-02-03T09:52:09;1.50;99.90
73586;DHT22;61865;50.232;18.614;2023-02-03T09:54:36;1.50;99.90
73586;DHT22;61865;50.232;18.614;2023-02-03T09:57:05;1.50;99.90
73586;DHT22;61865;50.232;18.614;2023-02-03T09:59:34;1.60;99.90
73586;DHT22;61865;50.232;18.614;2023-02-03T10:02:00;1.60;99.90
73586;DHT22;61865;50.232;18.614;2023-02-03T10:04:34;1.60;99.90
73586;DHT22;61865;50.232;18.614;2023-02-03T10:07:05;1.60;99.90
73586;DHT22;61865;50.232;18.614;2023-02-03T10:09:41;1.70;99.90
73586;DHT22;61865;50.232;18.614;2023-02-03T10:12:19;1.60;99.90
73586;DHT22;61865;50.232;18.614;2023-02-03T10:14:53;1.70;99.90
73586;DHT22;61865;50.232;18.614;2023-02-03T10:17:25;1.70;99.90
73586;DHT22;61865;50.232;18.614;2023-02-03T10:20:05;1.70;99.90
73586;DHT22;61865;50.232;18.614;2023-02-03T10:22:35;1.70;99.90
73586;DHT22;61865;50.232;18.614;2023-02-03T10:25:02;1.70;99.90
73586;DHT22;61865;50.232;18.614;2023-02-03T10:27:25;1.70;99.90
73586;DHT22;61865;50.232;18.614;2023-02-03T10:29:53;1.70;99.90
73586;DHT22;61865;50.232;18.614;2023-02-03T10:32:17;1.70;99.90
73586;DHT22;61865;50.232;18.614;2023-02-03T10:34:41;1.70;99.90
73586;DHT22;61865;50.232;18.614;2023-02-03T10:37:12;1.70;99.90
73586;DHT22;61865;50.232;18.614;2023-02-03T10:39:40;1.70;99.90
73586;DHT22;61865;50.232;18.614;2023-02-03T10:42:04;1.80;99.90
73586;DHT22;61865;50.232;18.614;2023-02-03T10:44:33;1.80;99.90
73586;DHT22;61865;50.232;18.614;2023-02-03T10:46:56;1.80;99.90
73586;DHT22;61865;50.232;18.614;2023-02-03T10:49:18;1.80;99.90
73586;DHT22;61865;50.232;18.614;2023-02-03T10:51:44;1.90;99.90
73586;DHT22;61865;50.232;18.614;2023-02-03T10:54:26;1.80;99.90
73586;DHT22;61865;50.232;18.614;2023-02-03T10:56:48;1.80;99.90
73586;DHT22;61865;50.232;18.614;2023-02-03T10:59:27;1.80;99.90
73586;DHT22;61865;50.232;18.614;2023-02-03T11:01:50;1.80;99.90
73586;DHT22;61865;50.232;18.614;2023-02-03T11:04:23;1.90;99.90
73586;DHT22;61865;50.232;18.614;2023-02-03T11:06:53;1.90;99.90
73586;DHT22;61865;50.232;18.614;2023-02-03T11:09:30;1.90;99.90
73586;DHT22;61865;50.232;18.614;2023-02-03T11:12:06;1.90;99.90
73586;DHT22;61865;50.232;18.614;2023-02-03T11:14:35;2.00;99.90
73586;DHT22;61865;50.232;18.614;2023-02-03T11:17:05;2.00;99.90
73586;DHT22;61865;50.232;18.614;2023-02-03T11:19:28;2.00;99.90
73586;DHT22;61865;50.232;18.614;2023-02-03T11:21:51;2.00;99.90
73586;DHT22;61865;50.232;18.614;2023-02-03T11:24:18;2.10;99.90
73586;DHT22;61865;50.232;18.614;2023-02-03T11:26:44;2.10;99.90
73586;DHT22;61865;50.232;18.614;2023-02-03T11:29:15;2.10;99.90
73586;DHT22;61865;50.232;18.614;2023-02-03T11:31:38;2.10;99.90
73586;DHT22;61865;50.232;18.614;2023-02-03T11:34:02;2.00;99.90
73586;DHT22;61865;50.232;18.614;2023-02-03T11:36:26;2.10;99.90
73586;DHT22;61865;50.232;18.614;2023-02-03T11:38:49;2.10;99.90
73586;DHT22;61865;50.232;18.614;2023-02-03T11:41:18;2.10;99.90
73586;DHT22;61865;50.232;18.614;2023-02-03T11:43:43;2.10;99.90
73586;DHT22;61865;50.232;18.614;2023-02-03T11:46:05;2.10;99.90
73586;DHT22;61865;50.232;18.614;2023-02-03T11:48:30;2.10;99.90
73586;DHT22;61865;50.232;18.614;2023-02-03T11:51:03;2.20;99.90
73586;DHT22;61865;50.232;18.614;2023-02-03T11:53:31;2.20;99.90
73586;DHT22;61865;50.232;18.614;2023-02-03T11:56:15;2.20;99.90
73586;DHT22;61865;50.232;18.614;2023-02-03T11:58:51;2.20;99.90
73586;DHT22;61865;50.232;18.614;2023-02-03T12:01:23;2.20;99.90
73586;DHT22;61865;50.232;18.614;2023-02-03T12:04:13;2.10;99.90
73586;DHT22;61865;50.232;18.614;2023-02-03T12:06:59;2.10;99.90
73586;DHT22;61865;50.232;18.614;2023-02-03T12:09:30;2.20;99.90
73586;DHT22;61865;50.232;18.614;2023-02-03T12:12:10;2.20;99.90
73586;DHT22;61865;50.232;18.614;2023-02-03T12:14:55;2.20;99.90
73586;DHT22;61865;50.232;18.614;2023-02-03T12:17:56;2.20;99.90
73586;DHT22;61865;50.232;18.614;2023-02-03T12:20:26;2.20;99.90
73586;DHT22;61865;50.232;18.614;2023-02-03T12:22:53;2.20;99.90
73586;DHT22;61865;50.232;18.614;2023-02-03T12:25:29;2.20;99.90
73586;DHT22;61865;50.232;18.614;2023-02-03T12:28:01;2.20;99.90
73586;DHT22;61865;50.232;18.614;2023-02-03T12:30:31;2.10;99.90
73586;DHT22;61865;50.232;18.614;2023-02-03T12:32:56;2.20;99.90
73586;DHT22;61865;50.232;18.614;2023-02-03T12:35:23;2.20;99.90
73586;DHT22;61865;50.232;18.614;2023-02-03T12:37:49;2.20;99.90
73586;DHT22;61865;50.232;18.614;2023-02-03T12:40:17;2.10;99.90
73586;DHT22;61865;50.232;18.614;2023-02-03T12:42:45;2.10;99.90
73586;DHT22;61865;50.232;18.614;2023-02-03T12:45:11;2.10;99.90
73586;DHT22;61865;50.232;18.614;2023-02-03T12:47:40;2.10;99.90
73586;DHT22;61865;50.232;18.614;2023-02-03T12:50:05;2.10;99.90
73586;DHT22;61865;50.232;18.614;2023-02-03T12:52:35;2.10;99.90
73586;DHT22;61865;50.232;18.614;2023-02-03T12:55:06;2.10;99.90
73586;DHT22;61865;50.232;18.614;2023-02-03T12:57:35;2.10;99.90
73586;DHT22;61865;50.232;18.614;2023-02-03T13:00:08;2.00;99.90
73586;DHT22;61865;50.232;18.614;2023-02-03T13:02:36;2.00;99.90
73586;DHT22;61865;50.232;18.614;2023-02-03T13:05:08;1.90;99.90
73586;DHT22;61865;50.232;18.614;2023-02-03T13:07:40;1.80;99.90
73586;DHT22;61865;50.232;18.614;2023-02-03T13:10:15;1.80;99.90
73586;DHT22;61865;50.232;18.614;2023-02-03T13:12:41;1.80;99.90
73586;DHT22;61865;50.232;18.614;2023-02-03T13:15:19;1.70;99.90
73586;DHT22;61865;50.232;18.614;2023-02-03T13:17:51;1.70;99.90
73586;DHT22;61865;50.232;18.614;2023-02-03T13:20:18;1.70;99.90
73586;DHT22;61865;50.232;18.614;2023-02-03T13:22:43;1.70;99.90
73586;DHT22;61865;50.232;18.614;2023-02-03T13:25:16;1.70;99.90
73586;DHT22;61865;50.232;18.614;2023-02-03T13:27:45;1.70;99.90
73586;DHT22;61865;50.232;18.614;2023-02-03T13:30:46;1.80;99.90
73586;DHT22;61865;50.232;18.614;2023-02-03T13:36:26;1.80;99.90
73586;DHT22;61865;50.232;18.614;2023-02-03T13:39:19;1.90;99.90
73586;DHT22;61865;50.232;18.614;2023-02-03T13:41:46;1.80;99.90
73586;DHT22;61865;50.232;18.614;2023-02-03T13:44:11;1.80;99.90
73586;DHT22;61865;50.232;18.614;2023-02-03T13:46:37;1.80;99.90
73586;DHT22;61865;50.232;18.614;2023-02-03T13:49:03;1.80;99.90
73586;DHT22;61865;50.232;18.614;2023-02-03T13:51:29;1.80;99.90
73586;DHT22;61865;50.232;18.614;2023-02-03T13:53:59;1.80;99.90
73586;DHT22;61865;50.232;18.614;2023-02-03T13:56:23;1.90;99.90
73586;DHT22;61865;50.232;18.614;2023-02-03T13:58:59;1.90;99.90
73586;DHT22;61865;50.232;18.614;2023-02-03T14:01:34;2.00;99.90
73586;DHT22;61865;50.232;18.614;2023-02-03T14:03:57;2.00;99.90
73586;DHT22;61865;50.232;18.614;2023-02-03T14:09:21;2.10;99.90
73586;DHT22;61865;50.232;18.614;2023-02-03T14:11:44;2.10;99.90
73586;DHT22;61865;50.232;18.614;2023-02-03T14:14:41;2.10;99.90
73586;DHT22;61865;50.232;18.614;2023-02-03T14:17:20;2.10;99.90
73586;DHT22;61865;50.232;18.614;2023-02-03T14:20:04;2.10;99.90
73586;DHT22;61865;50.232;18.614;2023-02-03T14:22:45;2.20;99.90
73586;DHT22;61865;50.232;18.614;2023-02-03T14:25:09;2.20;99.90
73586;DHT22;61865;50.232;18.614;2023-02-03T14:27:31;2.20;99.90
73586;DHT22;61865;50.232;18.614;2023-02-03T14:30:05;2.20;99.90
73586;DHT22;61865;50.232;18.614;2023-02-03T14:32:47;2.20;99.90
73586;DHT22;61865;50.232;18.614;2023-02-03T14:35:14;2.20;99.90
73586;DHT22;61865;50.232;18.614;2023-02-03T14:37:38;2.30;99.90
73586;DHT22;61865;50.232;18.614;2023-02-03T14:40:19;2.30;99.90
73586;DHT22;61865;50.232;18.614;2023-02-03T14:42:57;2.30;99.90
73586;DHT22;61865;50.232;18.614;2023-02-03T14:45:38;2.30;99.90
73586;DHT22;61865;50.232;18.614;2023-02-03T14:48:11;2.30;99.90
73586;DHT22;61865;50.232;18.614;2023-02-03T14:50:45;2.30;99.90
73586;DHT22;61865;50.232;18.614;2023-02-03T14:53:35;2.30;99.90
73586;DHT22;61865;50.232;18.614;2023-02-03T14:56:10;2.30;99.90
73586;DHT22;61865;50.232;18.614;2023-02-03T14:58:39;2.30;99.90
73586;DHT22;61865;50.232;18.614;2023-02-03T15:01:03;2.30;99.90
73586;DHT22;61865;50.232;18.614;2023-02-03T15:03:27;2.30;99.90
73586;DHT22;61865;50.232;18.614;2023-02-03T15:05:53;2.40;99.90
73586;DHT22;61865;50.232;18.614;2023-02-03T15:11:23;2.40;99.90
73586;DHT22;61865;50.232;18.614;2023-02-03T15:13:46;2.40;99.90
73586;DHT22;61865;50.232;18.614;2023-02-03T15:16:13;2.30;99.90
73586;DHT22;61865;50.232;18.614;2023-02-03T15:18:40;2.40;99.90
73586;DHT22;61865;50.232;18.614;2023-02-03T15:21:03;2.40;99.90
73586;DHT22;61865;50.232;18.614;2023-02-03T15:23:27;2.40;99.90
73586;DHT22;61865;50.232;18.614;2023-02-03T15:25:54;2.40;99.90
73586;DHT22;61865;50.232;18.614;2023-02-03T15:28:20;2.40;99.90
73586;DHT22;61865;50.232;18.614;2023-02-03T15:30:43;2.50;99.90
73586;DHT22;61865;50.232;18.614;2023-02-03T15:33:06;2.50;99.90